Time,TemperatureF,DewpointF,PressureIn,WindDirection,WindDirectionDegrees,WindSpeedMPH,WindSpeedGustMPH,Humidity,HourlyPrecipIn,Conditions,Clouds,dailyrainin,SolarRadiationWatts/m^2,SoftwareType,DateUTC
2013-09-05 00:00:00,58.0,57.0,-100.00,ENE,67,0.0,-999.0,98,-99.99,,,-99.99,0.000000,,2013-09-05 04:00:00,
2013-09-05 00:44:00,58.0,57.0,-100.00,ENE,67,0.0,-999.0,98,-99.99,,,-99.99,0.000000,,2013-09-05 04:44:00,
2013-09-05 00:53:00,58.0,57.0,-100.00,ENE,67,0.0,-999.0,98,-99.99,,,-99.99,0.000000,,2013-09-05 04:53:00,
2013-09-05 01:00:00,56.0,56.0,-100.00,NNE,22,0.0,-999.0,101,-99.99,,,-99.99,0.000000,,2013-09-05 05:00:00,
2013-09-05 01:43:00,56.0,56.0,-100.00,NNE,22,0.0,-999.0,101,-99.99,,,-99.99,0.000000,,2013-09-05 05:43:00,
2013-09-05 01:52:00,56.0,56.0,-100.00,NNE,22,0.0,-999.0,101,-99.99,,,-99.99,0.000000,,2013-09-05 05:52:00,
2013-09-05 02:00:00,56.0,56.0,-100.00,NE,45,0.0,-999.0,101,-99.99,,,-99.99,0.000000,,2013-09-05 06:00:00,
2013-09-05 02:42:00,56.0,56.0,-100.00,NE,45,0.0,-999.0,101,-99.99,,,-99.99,0.000000,,2013-09-05 06:42:00,
2013-09-05 02:52:00,56.0,56.0,-100.00,NE,45,0.0,-999.0,101,-99.99,,,-99.99,0.000000,,2013-09-05 06:52:00,
2013-09-05 03:00:00,56.0,56.0,-100.00,ENE,67,0.0,-999.0,102,-99.99,,,-99.99,0.000000,,2013-09-05 07:00:00,
2013-09-05 03:42:00,56.0,56.0,-100.00,ENE,67,0.0,-999.0,102,-99.99,,,-99.99,0.000000,,2013-09-05 07:42:00,
2013-09-05 03:52:00,56.0,56.0,-100.00,ENE,67,0.0,-999.0,102,-99.99,,,-99.99,0.000000,,2013-09-05 07:52:00,
2013-09-05 04:00:00,57.0,57.0,-100.00,ENE,67,0.0,-999.0,102,-99.99,,,-99.99,0.000000,,2013-09-05 08:00:00,
2013-09-05 04:42:00,57.0,57.0,-100.00,ENE,67,0.0,-999.0,102,-99.99,,,-99.99,0.000000,,2013-09-05 08:42:00,
2013-09-05 04:52:00,57.0,57.0,-100.00,ENE,67,0.0,-999.0,102,-99.99,,,-99.99,0.000000,,2013-09-05 08:52:00,
2013-09-05 05:00:00,56.0,56.0,-100.00,ESE,112,0.0,-999.0,102,-99.99,,,-99.99,0.000000,,2013-09-05 09:00:00,
2013-09-05 05:43:00,56.0,56.0,-100.00,ESE,112,0.0,-999.0,102,-99.99,,,-99.99,0.000000,,2013-09-05 09:43:00,
2013-09-05 05:54:00,56.0,56.0,-100.00,ESE,112,0.0,-999.0,102,-99.99,,,-99.99,0.000000,,2013-09-05 09:54:00,
2013-09-05 07:00:00,59.0,59.0,-100.00,NE,45,1.0,-999.0,103,-99.99,,,-99.99,0.000000,,2013-09-05 11:00:00,
2013-09-05 07:43:00,59.0,59.0,-100.00,NE,45,1.0,-999.0,103,-99.99,,,-99.99,0.000000,,2013-09-05 11:43:00,
2013-09-05 07:52:00,59.0,59.0,-100.00,NE,45,1.0,-999.0,103,-99.99,,,-99.99,0.000000,,2013-09-05 11:52:00,
2013-09-05 08:00:00,58.0,56.0,-100.00,NE,45,2.0,-999.0,93,-99.99,,,-99.99,19.719999,,2013-09-05 12:00:00,
2013-09-05 08:42:00,58.0,56.0,-100.00,NE,45,2.0,-999.0,93,-99.99,,,-99.99,19.719999,,2013-09-05 12:42:00,
2013-09-05 08:52:00,58.0,56.0,-100.00,NE,45,2.0,-999.0,93,-99.99,,,-99.99,19.719999,,2013-09-05 12:52:00,
2013-09-05 09:00:00,60.0,52.0,-100.00,NE,45,2.0,-999.0,75,-99.99,,,-99.99,146.160004,,2013-09-05 13:00:00,
2013-09-05 09:42:00,60.0,52.0,-100.00,NE,45,2.0,-999.0,75,-99.99,,,-99.99,146.160004,,2013-09-05 13:42:00,
2013-09-05 09:53:00,60.0,52.0,-100.00,NE,45,2.0,-999.0,75,-99.99,,,-99.99,146.160004,,2013-09-05 13:53:00,
2013-09-05 11:00:00,64.0,50.0,-100.00,ENE,67,4.0,-999.0,61,-99.99,,,-99.99,404.839996,,2013-09-05 15:00:00,
2013-09-05 11:44:00,64.0,50.0,-100.00,ENE,67,4.0,-999.0,61,-99.99,,,-99.99,404.839996,,2013-09-05 15:44:00,
2013-09-05 11:54:00,64.0,50.0,-100.00,ENE,67,4.0,-999.0,61,-99.99,,,-99.99,404.839996,,2013-09-05 15:54:00,
2013-09-05 12:00:00,69.0,51.0,-100.00,ENE,67,4.0,-999.0,52,-99.99,,,-99.99,661.200012,,2013-09-05 16:00:00,
2013-09-05 12:43:00,69.0,51.0,-100.00,ENE,67,4.0,-999.0,52,-99.99,,,-99.99,661.200012,,2013-09-05 16:43:00,
2013-09-05 12:54:00,69.0,51.0,-100.00,ENE,67,4.0,-999.0,52,-99.99,,,-99.99,661.200012,,2013-09-05 16:54:00,
2013-09-05 14:00:00,74.0,42.0,-100.00,East,90,3.0,-999.0,32,-99.99,,,-99.99,807.359985,,2013-09-05 18:00:00,
2013-09-05 14:43:00,74.0,42.0,-100.00,East,90,3.0,-999.0,32,-99.99,,,-99.99,807.359985,,2013-09-05 18:43:00,
2013-09-05 14:52:00,74.0,42.0,-100.00,East,90,3.0,-999.0,32,-99.99,,,-99.99,807.359985,,2013-09-05 18:52:00,
2013-09-05 15:00:00,76.0,41.0,-100.00,ESE,112,4.0,-999.0,28,-99.99,,,-99.99,793.440002,,2013-09-05 19:00:00,
2013-09-05 15:42:00,76.0,41.0,-100.00,ESE,112,4.0,-999.0,28,-99.99,,,-99.99,793.440002,,2013-09-05 19:42:00,
2013-09-05 15:52:00,76.0,41.0,-100.00,ESE,112,4.0,-999.0,28,-99.99,,,-99.99,793.440002,,2013-09-05 19:52:00,
2013-09-05 16:00:00,77.0,41.0,-100.00,SSE,157,4.0,-999.0,28,-99.99,,,-99.99,720.359985,,2013-09-05 20:00:00,
2013-09-05 16:43:00,77.0,41.0,-100.00,SSE,157,4.0,-999.0,28,-99.99,,,-99.99,720.359985,,2013-09-05 20:43:00,
2013-09-05 16:52:00,77.0,41.0,-100.00,SSE,157,4.0,-999.0,28,-99.99,,,-99.99,720.359985,,2013-09-05 20:52:00,
2013-09-05 17:00:00,77.0,42.0,-100.00,SE,135,4.0,-999.0,29,-99.99,,,-99.99,598.559998,,2013-09-05 21:00:00,
2013-09-05 17:44:00,77.0,42.0,-100.00,SE,135,4.0,-999.0,29,-99.99,,,-99.99,598.559998,,2013-09-05 21:44:00,
2013-09-05 17:54:00,77.0,42.0,-100.00,SE,135,4.0,-999.0,29,-99.99,,,-99.99,598.559998,,2013-09-05 21:54:00,
2013-09-05 18:00:00,76.0,43.0,-100.00,ESE,112,3.0,-999.0,31,-99.99,,,-99.99,439.640015,,2013-09-05 22:00:00,
2013-09-05 18:43:00,76.0,43.0,-100.00,ESE,112,3.0,-999.0,31,-99.99,,,-99.99,439.640015,,2013-09-05 22:43:00,
2013-09-05 18:53:00,76.0,43.0,-100.00,ESE,112,3.0,-999.0,31,-99.99,,,-99.99,439.640015,,2013-09-05 22:53:00,
2013-09-05 19:00:00,73.0,50.0,-100.00,WSW,247,6.0,-999.0,44,-99.99,,,-99.99,261.000000,,2013-09-05 23:00:00,
2013-09-05 19:42:00,73.0,50.0,-100.00,WSW,247,6.0,-999.0,44,-99.99,,,-99.99,261.000000,,2013-09-05 23:42:00,
2013-09-05 19:53:00,73.0,50.0,-100.00,WSW,247,6.0,-999.0,44,-99.99,,,-99.99,261.000000,,2013-09-05 23:53:00,
2013-09-05 22:00:00,57.0,53.0,-100.00,NE,45,1.0,-999.0,86,-99.99,,,-99.99,0.000000,,2013-09-06 02:00:00,
2013-09-05 22:42:00,57.0,53.0,-100.00,NE,45,1.0,-999.0,86,-99.99,,,-99.99,0.000000,,2013-09-06 02:42:00,
2013-09-05 22:52:00,57.0,53.0,-100.00,NE,45,1.0,-999.0,86,-99.99,,,-99.99,0.000000,,2013-09-06 02:52:00,